createdAt,value
2023-02-19T00:01:47.664Z,18.58
2023-02-19T00:04:18.136Z,22.33
2023-02-19T00:06:47.185Z,24.42
2023-02-19T00:09:16.695Z,29.45
2023-02-19T00:11:45.052Z,18.35
2023-02-19T00:14:17.417Z,12.80
2023-02-19T00:16:44.699Z,24.90
2023-02-19T00:19:17.312Z,15.60
2023-02-19T00:21:44.515Z,18.48
2023-02-19T00:24:13.250Z,20.48
2023-02-19T00:26:42.421Z,15.95
2023-02-19T00:29:15.636Z,16.42
2023-02-19T00:31:44.116Z,15.73
2023-02-19T00:34:12.755Z,15.38
2023-02-19T00:36:41.683Z,19.48
2023-02-19T00:39:11.347Z,15.30
2023-02-19T00:41:38.617Z,14.48
2023-02-19T00:44:08.151Z,13.45
2023-02-19T00:46:47.387Z,14.95
2023-02-19T00:49:22.430Z,14.32
2023-02-19T00:51:51.559Z,19.80
2023-02-19T00:54:18.992Z,17.83
2023-02-19T00:56:46.480Z,21.77
2023-02-19T00:59:14.409Z,24.33
2023-02-19T01:01:44.369Z,15.75
2023-02-19T01:04:11.963Z,29.17
2023-02-19T01:06:39.305Z,17.77
2023-02-19T01:09:07.876Z,22.45
2023-02-19T01:11:35.591Z,23.58
2023-02-19T01:14:03.656Z,18.58
2023-02-19T01:16:31.432Z,15.85
2023-02-19T01:18:59.450Z,20.77
2023-02-19T01:21:28.448Z,17.65
2023-02-19T01:23:56.842Z,22.30
2023-02-19T01:26:29.147Z,18.55
2023-02-19T01:28:57.182Z,21.55
2023-02-19T01:31:25.860Z,20.38
2023-02-19T01:33:58.958Z,27.02
2023-02-19T01:36:27.653Z,16.48
2023-02-19T01:38:55.716Z,28.17
2023-02-19T01:41:26.561Z,27.83
2023-02-19T01:43:59.574Z,22.63
2023-02-19T01:46:29.357Z,18.48
2023-02-19T01:49:01.253Z,11.88
2023-02-19T01:51:30.281Z,19.10
2023-02-19T01:54:00.887Z,16.13
2023-02-19T01:56:30.368Z,16.20
2023-02-19T01:58:59.242Z,18.23
2023-02-19T02:01:26.554Z,16.98
2023-02-19T02:03:54.112Z,17.33
2023-02-19T02:06:25.050Z,23.50
2023-02-19T02:09:14.034Z,16.58
2023-02-19T02:11:48.768Z,11.70
2023-02-19T02:14:22.197Z,26.60
2023-02-19T02:17:15.989Z,13.23
2023-02-19T02:19:55.081Z,23.23
2023-02-19T02:23:03.366Z,20.10
2023-02-19T02:25:52.494Z,16.63
2023-02-19T02:28:36.209Z,20.08
2023-02-19T02:31:12.378Z,14.40
2023-02-19T02:33:59.786Z,21.23
2023-02-19T02:36:30.030Z,21.58
2023-02-19T02:38:58.499Z,26.67
2023-02-19T02:41:26.853Z,18.40
2023-02-19T02:43:54.817Z,17.40
2023-02-19T02:46:28.336Z,14.02
2023-02-19T02:49:05.514Z,13.00
2023-02-19T02:51:41.505Z,16.70
2023-02-19T02:54:41.314Z,19.40
2023-02-19T02:57:14.969Z,18.67
2023-02-19T02:59:56.595Z,11.73
2023-02-19T03:02:28.698Z,21.90
2023-02-19T03:05:34.367Z,24.33
2023-02-19T03:08:10.264Z,20.80
2023-02-19T03:10:48.125Z,12.25
2023-02-19T03:13:53.916Z,15.25
2023-02-19T03:16:45.822Z,20.02
2023-02-19T03:19:19.307Z,17.20
2023-02-19T03:22:10.230Z,14.80
2023-02-19T03:25:09.204Z,12.90
2023-02-19T03:27:38.920Z,12.07
2023-02-19T03:30:13.030Z,24.17
2023-02-19T03:32:53.426Z,13.45
2023-02-19T03:35:28.200Z,10.13
2023-02-19T03:38:32.208Z,10.27
2023-02-19T03:44:13.490Z,9.13
2023-02-19T03:46:57.043Z,14.10
2023-02-19T03:49:55.797Z,16.30
2023-02-19T03:52:26.225Z,16.40
2023-02-19T03:55:03.294Z,12.60
2023-02-19T03:57:37.534Z,7.80
2023-02-19T04:00:13.470Z,13.35
2023-02-19T04:03:00.780Z,13.35
2023-02-19T04:05:37.164Z,9.57
2023-02-19T04:08:26.293Z,9.80
2023-02-19T04:11:00.576Z,12.85
2023-02-19T04:13:32.930Z,15.68
2023-02-19T04:16:04.985Z,17.77
2023-02-19T04:18:36.408Z,10.50
2023-02-19T04:21:05.656Z,19.05
2023-02-19T04:23:38.377Z,14.35
2023-02-19T04:26:08.087Z,13.85
2023-02-19T04:28:35.787Z,16.25
2023-02-19T04:31:03.113Z,11.82
2023-02-19T04:33:30.504Z,13.57
2023-02-19T04:35:57.785Z,11.98
2023-02-19T04:38:25.015Z,11.98
2023-02-19T04:40:52.358Z,18.02
2023-02-19T04:43:19.914Z,16.33
2023-02-19T04:45:47.222Z,14.32
2023-02-19T04:48:14.989Z,11.57
2023-02-19T04:50:42.224Z,9.30
2023-02-19T04:53:09.515Z,9.27
2023-02-19T04:55:38.505Z,14.32
2023-02-19T04:58:05.888Z,6.47
2023-02-19T05:00:34.177Z,10.63
2023-02-19T05:03:01.713Z,13.07
2023-02-19T05:05:29.183Z,8.13
2023-02-19T05:07:56.432Z,13.63
2023-02-19T05:10:23.779Z,8.50
2023-02-19T05:12:51.073Z,10.57
2023-02-19T05:15:18.383Z,7.50
2023-02-19T05:17:45.702Z,9.45
2023-02-19T05:20:14.097Z,5.70
2023-02-19T05:22:41.360Z,8.80
2023-02-19T05:25:08.680Z,11.43
2023-02-19T05:27:35.948Z,9.52
2023-02-19T05:30:03.384Z,7.43
2023-02-19T05:32:30.798Z,11.32
2023-02-19T05:34:58.099Z,4.63
2023-02-19T05:37:25.492Z,9.60
2023-02-19T05:39:52.815Z,6.65
2023-02-19T05:42:20.063Z,14.07
2023-02-19T05:44:47.259Z,7.63
2023-02-19T05:47:14.479Z,11.52
2023-02-19T05:49:41.726Z,10.15
2023-02-19T05:52:08.972Z,4.97
2023-02-19T05:54:36.178Z,7.47
2023-02-19T05:57:03.508Z,8.02
2023-02-19T05:59:30.986Z,9.85
2023-02-19T06:01:58.592Z,5.47
2023-02-19T06:04:25.856Z,13.10
2023-02-19T06:06:53.111Z,7.05
2023-02-19T06:09:20.366Z,5.75
2023-02-19T06:11:47.809Z,8.07
2023-02-19T06:14:15.051Z,5.45
2023-02-19T06:16:42.629Z,8.82
2023-02-19T06:19:09.925Z,8.60
2023-02-19T06:21:37.336Z,13.65
2023-02-19T06:24:08.965Z,7.03
2023-02-19T06:26:36.598Z,4.13
2023-02-19T06:29:04.604Z,7.38
2023-02-19T06:31:32.138Z,9.65
2023-02-19T06:33:59.405Z,7.45
2023-02-19T06:36:26.709Z,6.47
2023-02-19T06:38:53.969Z,12.65
2023-02-19T06:41:21.180Z,8.38
2023-02-19T06:43:48.559Z,11.00
2023-02-19T06:46:15.913Z,9.88
2023-02-19T06:48:45.085Z,8.50
2023-02-19T06:51:26.443Z,13.30
2023-02-19T06:53:53.923Z,4.55
2023-02-19T06:56:27.184Z,11.65
2023-02-19T06:58:56.006Z,15.20
2023-02-19T07:01:24.492Z,6.90
2023-02-19T07:03:52.809Z,8.55
2023-02-19T07:06:22.015Z,6.55
2023-02-19T07:08:50.512Z,11.30
2023-02-19T07:11:18.786Z,10.38
2023-02-19T07:13:46.601Z,7.97
2023-02-19T07:16:14.437Z,4.68
2023-02-19T07:18:41.761Z,11.48
2023-02-19T07:21:12.540Z,10.15
2023-02-19T07:23:40.680Z,7.32
2023-02-19T07:26:17.226Z,12.75
2023-02-19T07:28:46.734Z,8.05
2023-02-19T07:31:15.472Z,10.73
2023-02-19T07:33:44.721Z,7.05
2023-02-19T07:36:13.601Z,5.53
2023-02-19T07:38:40.859Z,7.55
2023-02-19T07:41:08.131Z,5.53
2023-02-19T07:43:37.523Z,9.13
2023-02-19T07:46:10.673Z,5.30
2023-02-19T07:48:39.459Z,6.72
2023-02-19T07:51:08.762Z,3.30
2023-02-19T07:53:36.445Z,11.93
2023-02-19T07:56:06.089Z,8.60
2023-02-19T07:58:34.508Z,8.77
2023-02-19T08:01:40.497Z,4.55
2023-02-19T08:04:07.979Z,3.25
2023-02-19T08:06:35.300Z,4.95
2023-02-19T08:09:03.498Z,8.70
2023-02-19T08:11:49.308Z,7.60
2023-02-19T08:14:16.701Z,7.88
2023-02-19T08:16:53.611Z,7.20
2023-02-19T08:19:21.529Z,16.08
2023-02-19T08:21:48.831Z,9.00
2023-02-19T08:24:16.174Z,11.73
2023-02-19T08:26:43.488Z,10.02
2023-02-19T08:29:10.816Z,13.75
2023-02-19T08:31:38.317Z,9.02
2023-02-19T08:34:05.634Z,3.47
2023-02-19T08:36:32.939Z,9.13
2023-02-19T08:39:00.354Z,3.72
2023-02-19T08:41:28.235Z,13.38
2023-02-19T08:43:55.467Z,6.80
2023-02-19T08:46:22.936Z,7.50
2023-02-19T08:48:50.398Z,9.30
2023-02-19T08:51:17.692Z,3.53
2023-02-19T08:53:45.016Z,5.43
2023-02-19T08:56:15.068Z,6.80
2023-02-19T08:58:42.430Z,3.65
2023-02-19T09:01:12.239Z,12.30
2023-02-19T09:03:40.611Z,9.52
2023-02-19T09:06:08.697Z,7.97
2023-02-19T09:08:36.303Z,7.70
2023-02-19T09:11:07.043Z,7.07
2023-02-19T09:13:34.448Z,9.10
2023-02-19T09:16:04.579Z,4.40
2023-02-19T09:18:32.135Z,4.50
2023-02-19T09:21:04.792Z,7.82
2023-02-19T09:23:36.730Z,5.47
2023-02-19T09:26:08.671Z,7.75
2023-02-19T09:28:36.688Z,3.08
2023-02-19T09:31:07.700Z,4.07
2023-02-19T09:33:35.500Z,3.55
2023-02-19T09:36:03.660Z,3.08
2023-02-19T09:38:31.116Z,6.78
2023-02-19T09:41:00.179Z,4.15
2023-02-19T09:43:29.965Z,1.55
2023-02-19T09:46:13.136Z,7.10
2023-02-19T09:48:40.345Z,6.50
2023-02-19T09:51:10.267Z,6.70
2023-02-19T09:53:44.353Z,8.88
2023-02-19T09:56:11.580Z,2.88
2023-02-19T09:58:48.823Z,5.35
2023-02-19T10:01:16.150Z,6.95
2023-02-19T10:03:48.689Z,6.72
2023-02-19T10:06:24.846Z,6.20
2023-02-19T10:08:56.324Z,6.50
2023-02-19T10:11:26.279Z,5.32
2023-02-19T10:14:12.647Z,5.72
2023-02-19T10:16:43.376Z,5.53
2023-02-19T10:19:12.459Z,6.65
2023-02-19T10:21:40.198Z,4.07
2023-02-19T10:24:08.275Z,4.68
2023-02-19T10:26:36.864Z,1.70
2023-02-19T10:29:05.200Z,2.38
2023-02-19T10:31:33.519Z,4.30
2023-02-19T10:34:02.477Z,2.22
2023-02-19T10:36:41.833Z,2.28
2023-02-19T10:39:39.600Z,4.68
2023-02-19T10:42:13.841Z,4.25
2023-02-19T10:44:45.685Z,8.38
2023-02-19T10:47:19.301Z,3.22
2023-02-19T10:49:48.923Z,2.73
2023-02-19T10:52:25.976Z,6.05
2023-02-19T10:54:56.876Z,2.67
2023-02-19T10:57:33.087Z,4.45
2023-02-19T11:00:19.652Z,2.00
2023-02-19T11:02:46.952Z,1.00
2023-02-19T11:05:20.002Z,3.13
2023-02-19T11:07:48.979Z,1.42
2023-02-19T11:10:26.732Z,3.72
2023-02-19T11:13:03.384Z,3.50
2023-02-19T11:15:35.994Z,1.70
2023-02-19T11:18:12.468Z,6.32
2023-02-19T11:21:01.708Z,5.32
2023-02-19T11:23:36.672Z,3.63
2023-02-19T11:26:06.999Z,2.78
2023-02-19T11:28:40.947Z,3.88
2023-02-19T11:31:20.629Z,2.05
2023-02-19T11:33:57.536Z,2.25
2023-02-19T11:36:31.801Z,5.18
2023-02-19T11:39:05.477Z,1.35
2023-02-19T11:41:56.986Z,5.63
2023-02-19T11:44:47.250Z,3.15
2023-02-19T11:47:39.172Z,6.07
2023-02-19T11:50:31.868Z,8.48
2023-02-19T11:53:27.384Z,3.35
2023-02-19T11:56:02.270Z,4.07
2023-02-19T11:58:54.021Z,1.58
2023-02-19T12:01:26.870Z,2.35
2023-02-19T12:04:06.118Z,3.55
2023-02-19T12:06:36.358Z,3.72
2023-02-19T12:09:44.012Z,2.20
2023-02-19T12:12:24.415Z,2.72
2023-02-19T12:15:29.366Z,3.85
2023-02-19T12:18:04.262Z,1.33
2023-02-19T12:20:55.634Z,1.58
2023-02-19T12:23:52.171Z,1.83
2023-02-19T12:26:51.727Z,3.13
2023-02-19T12:29:33.979Z,4.18
2023-02-19T12:32:13.302Z,1.88
2023-02-19T12:34:49.593Z,2.83
2023-02-19T12:37:46.483Z,4.50
2023-02-19T12:40:49.358Z,2.13
2023-02-19T12:43:22.946Z,1.35
2023-02-19T12:46:12.446Z,3.55
2023-02-19T12:48:39.733Z,3.83
2023-02-19T12:51:37.196Z,2.08
2023-02-19T12:54:15.231Z,1.02
2023-02-19T12:57:05.835Z,3.80
2023-02-19T12:59:42.007Z,3.53
2023-02-19T13:02:28.051Z,2.35
2023-02-19T13:05:11.245Z,4.10
2023-02-19T13:07:44.523Z,3.05
2023-02-19T13:10:30.908Z,1.83
2023-02-19T13:13:03.898Z,2.67
2023-02-19T13:15:45.318Z,3.05
2023-02-19T13:18:30.041Z,2.17
2023-02-19T13:20:57.644Z,3.00
2023-02-19T13:23:47.770Z,0.98
2023-02-19T13:26:45.607Z,1.27
2023-02-19T13:29:33.150Z,4.10
2023-02-19T13:32:12.491Z,2.33
2023-02-19T13:34:47.787Z,3.97
2023-02-19T13:37:17.018Z,3.75
2023-02-19T13:39:50.579Z,2.28
2023-02-19T13:42:31.187Z,3.67
2023-02-19T13:44:59.317Z,3.33
2023-02-19T13:47:49.864Z,1.50
2023-02-19T13:50:25.908Z,3.45
2023-02-19T13:52:54.780Z,2.45
2023-02-19T13:55:44.198Z,1.33
2023-02-19T13:58:33.465Z,3.90
2023-02-19T14:01:05.316Z,1.33
2023-02-19T14:03:55.620Z,7.90
2023-02-19T14:06:23.064Z,1.20
2023-02-19T14:08:58.552Z,6.43
2023-02-19T14:11:44.267Z,0.50
2023-02-19T14:14:26.700Z,2.30
2023-02-19T14:17:17.731Z,4.00
2023-02-19T14:19:50.800Z,3.97
2023-02-19T14:22:50.211Z,2.15
2023-02-19T14:25:57.163Z,4.60
2023-02-19T14:28:35.551Z,2.88
2023-02-19T14:31:32.317Z,6.18
2023-02-19T14:34:22.935Z,2.28
2023-02-19T14:36:53.216Z,3.67
2023-02-19T14:39:27.811Z,7.43
2023-02-19T14:44:41.304Z,5.72
2023-02-19T14:47:18.866Z,5.75
2023-02-19T14:49:53.714Z,4.88
2023-02-19T14:52:29.010Z,2.67
2023-02-19T14:54:58.750Z,6.20
2023-02-19T14:57:30.455Z,2.17
2023-02-19T15:00:01.887Z,4.40
2023-02-19T15:02:32.478Z,2.08
2023-02-19T15:04:59.953Z,8.63
2023-02-19T15:07:33.960Z,1.90
2023-02-19T15:10:05.849Z,3.17
2023-02-19T15:12:45.637Z,6.20
2023-02-19T15:15:22.130Z,2.72
2023-02-19T15:17:51.264Z,3.70
2023-02-19T15:20:22.666Z,8.00
2023-02-19T15:22:50.351Z,4.03
2023-02-19T15:25:21.040Z,2.88
2023-02-19T15:27:48.864Z,4.90
2023-02-19T15:30:29.498Z,5.90
2023-02-19T15:33:00.138Z,6.00
2023-02-19T15:35:29.055Z,2.58
2023-02-19T15:37:56.825Z,4.47
2023-02-19T15:40:30.656Z,2.70
2023-02-19T15:43:00.125Z,4.15
2023-02-19T15:45:37.759Z,6.47
2023-02-19T15:48:18.888Z,4.47
2023-02-19T15:50:54.802Z,5.93
2023-02-19T15:53:31.466Z,4.60
2023-02-19T15:56:01.692Z,4.03
2023-02-19T15:58:47.272Z,5.38
2023-02-19T16:01:27.798Z,3.00
2023-02-19T16:03:55.865Z,4.78
2023-02-19T16:06:25.754Z,6.65
2023-02-19T16:08:53.002Z,3.55
2023-02-19T16:11:23.406Z,2.88
2023-02-19T16:13:52.029Z,3.75
2023-02-19T16:16:28.306Z,3.47
2023-02-19T16:18:56.712Z,7.47
2023-02-19T16:21:26.926Z,3.03
2023-02-19T16:24:06.791Z,3.03
2023-02-19T16:26:41.703Z,1.70
2023-02-19T16:29:33.021Z,3.30
2023-02-19T16:32:14.967Z,4.68
2023-02-19T16:34:50.683Z,3.85
2023-02-19T16:37:39.011Z,3.63
2023-02-19T16:40:09.211Z,6.15
2023-02-19T16:42:57.661Z,2.50
2023-02-19T16:45:27.539Z,3.70
2023-02-19T16:47:55.022Z,8.95
2023-02-19T16:50:25.024Z,2.72
2023-02-19T16:53:00.152Z,3.80
2023-02-19T16:55:29.421Z,3.22
2023-02-19T16:57:56.822Z,2.53
2023-02-19T17:00:26.646Z,4.07
2023-02-19T17:02:59.920Z,4.20
2023-02-19T17:05:30.832Z,2.85
2023-02-19T17:07:58.381Z,8.15
2023-02-19T17:10:27.864Z,3.25
2023-02-19T17:12:57.017Z,6.53
2023-02-19T17:15:25.497Z,9.77
2023-02-19T17:17:52.762Z,10.07
2023-02-19T17:20:27.435Z,7.57
2023-02-19T17:22:55.891Z,6.43
2023-02-19T17:25:24.304Z,8.20
2023-02-19T17:27:51.928Z,5.95
2023-02-19T17:30:32.032Z,5.15
2023-02-19T17:32:59.605Z,8.20
2023-02-19T17:35:26.946Z,7.43
2023-02-19T17:37:54.586Z,4.72
2023-02-19T17:40:33.563Z,7.13
2023-02-19T17:43:01.751Z,5.82
2023-02-19T17:45:29.641Z,5.90
2023-02-19T17:47:57.254Z,7.95
2023-02-19T17:50:27.665Z,5.10
2023-02-19T17:52:55.259Z,9.68
2023-02-19T17:55:22.712Z,13.35
2023-02-19T17:57:51.324Z,7.07
2023-02-19T18:00:22.240Z,6.03
2023-02-19T18:02:49.592Z,8.77
2023-02-19T18:05:17.625Z,6.90
2023-02-19T18:07:46.630Z,12.63
2023-02-19T18:10:15.215Z,8.75
2023-02-19T18:12:42.529Z,4.40
2023-02-19T18:15:21.107Z,5.15
2023-02-19T18:17:48.608Z,4.15
2023-02-19T18:20:22.353Z,10.52
2023-02-19T18:22:50.345Z,8.38
2023-02-19T18:25:19.247Z,5.93
2023-02-19T18:27:47.107Z,4.45
2023-02-19T18:30:17.713Z,8.20
2023-02-19T18:32:48.165Z,6.70
2023-02-19T18:35:18.035Z,6.57
2023-02-19T18:37:45.915Z,11.55
2023-02-19T18:40:13.434Z,8.80
2023-02-19T18:42:41.069Z,5.05
2023-02-19T18:45:08.524Z,7.82
2023-02-19T18:47:35.904Z,7.43
2023-02-19T18:50:05.985Z,13.63
2023-02-19T18:52:33.223Z,6.93
2023-02-19T18:55:00.733Z,9.13
2023-02-19T18:57:27.922Z,9.10
2023-02-19T18:59:55.127Z,5.50
2023-02-19T19:02:22.372Z,8.90
2023-02-19T19:04:54.307Z,11.13
2023-02-19T19:07:21.824Z,8.73
2023-02-19T19:09:49.104Z,11.20
2023-02-19T19:12:17.919Z,14.75
2023-02-19T19:14:45.430Z,10.35
2023-02-19T19:17:12.771Z,13.35
2023-02-19T19:19:41.336Z,6.18
2023-02-19T19:22:08.821Z,9.80
2023-02-19T19:24:36.480Z,7.63
2023-02-19T19:27:03.767Z,8.73
2023-02-19T19:29:31.152Z,12.88
2023-02-19T19:31:59.144Z,8.35
2023-02-19T19:34:27.115Z,9.27
2023-02-19T19:36:54.330Z,9.98
2023-02-19T19:39:21.695Z,9.95
2023-02-19T19:41:57.017Z,9.63
2023-02-19T19:44:24.215Z,8.32
2023-02-19T19:46:51.478Z,12.05
2023-02-19T19:49:19.815Z,11.55
2023-02-19T19:51:47.648Z,10.40
2023-02-19T19:54:15.875Z,11.93
2023-02-19T19:56:45.603Z,10.88
2023-02-19T19:59:15.972Z,9.70
2023-02-19T20:01:53.502Z,11.43
2023-02-19T20:04:22.412Z,7.15
2023-02-19T20:06:50.248Z,5.68
2023-02-19T20:09:18.690Z,14.40
2023-02-19T20:11:48.103Z,6.90
2023-02-19T20:14:17.234Z,10.20
2023-02-19T20:16:44.936Z,10.73
2023-02-19T20:19:12.255Z,9.55
2023-02-19T20:21:39.575Z,17.27
2023-02-19T20:24:07.046Z,12.20
2023-02-19T20:26:34.326Z,10.82
2023-02-19T20:29:04.564Z,11.10
2023-02-19T20:31:32.533Z,16.38
2023-02-19T20:34:00.598Z,12.15
2023-02-19T20:36:29.423Z,10.10
2023-02-19T20:38:56.896Z,13.13
2023-02-19T20:41:24.160Z,7.40
2023-02-19T20:43:51.452Z,14.15
2023-02-19T20:46:18.678Z,9.27
2023-02-19T20:48:46.182Z,12.73
2023-02-19T20:51:13.458Z,9.73
2023-02-19T20:53:42.421Z,11.10
2023-02-19T20:56:11.597Z,13.52
2023-02-19T20:58:42.480Z,16.02
2023-02-19T21:01:11.748Z,13.77
2023-02-19T21:03:38.977Z,9.38
2023-02-19T21:06:06.517Z,13.15
2023-02-19T21:08:33.797Z,12.63
2023-02-19T21:11:01.007Z,9.88
2023-02-19T21:13:30.173Z,14.15
2023-02-19T21:15:57.537Z,9.45
2023-02-19T21:18:24.908Z,14.75
2023-02-19T21:20:52.324Z,12.88
2023-02-19T21:23:19.610Z,13.95
2023-02-19T21:25:46.831Z,11.18
2023-02-19T21:28:14.117Z,20.13
2023-02-19T21:30:41.406Z,15.52
2023-02-19T21:33:08.720Z,9.40
2023-02-19T21:35:36.094Z,12.38
2023-02-19T21:38:03.617Z,18.05
2023-02-19T21:40:32.108Z,11.02
2023-02-19T21:42:59.528Z,11.45
2023-02-19T21:45:26.851Z,7.90
2023-02-19T21:47:55.107Z,11.60
2023-02-19T21:50:23.045Z,10.20
2023-02-19T21:52:50.351Z,7.70
2023-02-19T21:55:17.589Z,9.15
2023-02-19T21:57:44.888Z,9.15
2023-02-19T22:00:12.839Z,10.63
2023-02-19T22:02:40.027Z,15.68
2023-02-19T22:05:07.644Z,12.45
2023-02-19T22:07:34.952Z,6.55
2023-02-19T22:10:02.235Z,10.43
2023-02-19T22:12:29.483Z,11.20
2023-02-19T22:14:56.692Z,8.82
2023-02-19T22:17:24.007Z,7.53
2023-02-19T22:19:51.244Z,9.45
2023-02-19T22:22:18.613Z,10.35
2023-02-19T22:24:45.876Z,7.50
2023-02-19T22:27:13.074Z,6.57
2023-02-19T22:29:40.246Z,14.05
2023-02-19T22:32:07.864Z,9.30
2023-02-19T22:34:39.483Z,12.25
2023-02-19T22:37:06.791Z,4.68
2023-02-19T22:39:34.208Z,11.13
2023-02-19T22:42:01.433Z,3.92
2023-02-19T22:44:29.052Z,4.28
2023-02-19T22:46:57.122Z,4.30
2023-02-19T22:49:24.882Z,6.20
2023-02-19T22:52:00.295Z,7.30
2023-02-19T22:54:27.680Z,7.43
2023-02-19T22:56:55.398Z,10.10
2023-02-19T22:59:23.378Z,10.98
2023-02-19T23:01:50.789Z,8.38
2023-02-19T23:04:19.320Z,14.50
2023-02-19T23:06:46.722Z,11.02
2023-02-19T23:09:25.146Z,5.75
2023-02-19T23:11:52.758Z,8.75
2023-02-19T23:14:21.643Z,3.22
2023-02-19T23:16:49.009Z,8.18
2023-02-19T23:19:16.584Z,10.38
2023-02-19T23:21:45.353Z,9.60
2023-02-19T23:24:13.501Z,7.93
2023-02-19T23:26:48.897Z,10.07
2023-02-19T23:29:18.480Z,10.77
2023-02-19T23:31:45.771Z,6.95
2023-02-19T23:34:13.569Z,8.25
2023-02-19T23:36:45.502Z,5.80
2023-02-19T23:39:16.092Z,9.20
2023-02-19T23:41:51.731Z,5.95
2023-02-19T23:44:20.322Z,7.32
2023-02-19T23:46:48.152Z,6.20
2023-02-19T23:49:15.864Z,7.63
2023-02-19T23:51:43.164Z,4.18
2023-02-19T23:54:11.028Z,15.20
2023-02-19T23:56:38.241Z,10.63
2023-02-19T23:59:06.525Z,8.32
